首页
METAR-TAF:

METAR-TAF

机场 :

豪尔赫·查韦斯国际机场

利馬, 秘鲁

纬度: 12-00S, 经度: 077-07W, 海拔: 12米

当前天气观测

该预报发布于12分钟前的11:00 UTC
风速4节,风向西转西北
温度 15°C
湿度 82%
气压 1012 hPa
能见度10公里或以上
阴天层高于1200英尺

METAR: SPJC 151100Z 30004KT 9999 OVC012 15/12 Q1012 NOSIG RMK PP000

时间: 06:12 (11:12 UTC)

预报

该预报发布于6小时和12分钟前的05:00 UTC
预报有效从15日的 06点(UTC)到 16日的 06点(UTC)
风速5节,风向西南
能见度10公里或以上
阴天层高于1100英尺
成为
从 15日的 09点(UTC)到 15日的 11点(UTC)
能見度: 7000
阴天层高于900英尺
成为
从 15日的 15点(UTC)到 15日的 17点(UTC)
能见度10公里或以上
阴天层高于1300英尺
从 15日的 1800点(UTC)
风速11节,风向
能见度10公里或以上
多云层高于1700英尺

TAF: SPJC 150500Z 1506/1606 22005KT 9999 OVC011 TX18/1519Z TN14/1511Z BECMG 1509/1511 7000 OVC009 BECMG 1515/1517 9999 OVC013 FM151800 18011KT 9999 BKN017

超过4000个机场的气象观测和天气预报(METAR&TAF报告)。

可查询的气象台以黄色和红色小点在地图上表示。

将鼠标移到小点上方,可查看气象台名称。

然后点击查看天气观测和预报。

如需切换地图:点击带黑十字的绿色按钮放大地图;点击带横线的绿色按钮缩小地图;或者点击绿色箭头查看邻近地区的地图。


METAR-TAF: